Svartfoss — V2PR3 — position and weather

sailwx.info

Track history (hours):
 
Tides and Currents Weather Stations Pressure Air Temp Water Temp Dewpoint Dewpoint Depression Visibility Wind Speed Wind Dir Waves Ship Positions

Svartfoss

Last reported at 2017-Jun-26 08:23 UTC. Time now 2017-Jun-26 12:20 UTC.
Position N 69°39' E 018°58'.

Length 80 m; draft 5.6 m.

Type: Cargo ship. MMSI: 304882000.

Date/timePositionNaut miles runAvg speedWind from/ knotsBaromVisibWave heightAir tempDewpointWater temp
2017-Jun-26 08:23N 69°39' E 018°58'0 0.0
2017-Jun-26 08:00N 69°39' E 018°58'0 0.0
2017-Jun-26 07:30N 69°39' E 018°58'0 0.0
2017-Jun-26 07:00N 69°39' E 018°58'0 0.0
2017-Jun-26 06:30N 69°39' E 018°58'0 0.0
2017-Jun-26 06:00N 69°39' E 018°58'0 0.0
2017-Jun-26 05:29N 69°39' E 018°58'0 0.0
2017-Jun-26 05:00N 69°39' E 018°58'0 0.0
2017-Jun-26 04:30N 69°39' E 018°58'0 0.0
2017-Jun-26 04:00N 69°39' E 018°58'0 0.0
2017-Jun-26 03:30N 69°39' E 018°58'0 0.0
2017-Jun-26 03:00N 69°39' E 018°58'0 0.0
2017-Jun-26 02:30N 69°39' E 018°58'0 0.0
2017-Jun-26 02:00N 69°39' E 018°58'0 0.0
2017-Jun-26 01:30N 69°39' E 018°58'0 0.0
2017-Jun-26 01:00N 69°39' E 018°58'0 0.0
2017-Jun-26 00:30N 69°39' E 018°58'0 0.0
2017-Jun-26 00:00N 69°39' E 018°58'0 0.0
2017-Jun-25 23:30N 69°39' E 018°58'0 0.0
2017-Jun-25 23:00N 69°39' E 018°58'0 0.0
2017-Jun-25 22:30N 69°39' E 018°58'0 0.0
2017-Jun-25 22:00N 69°39' E 018°58'0 0.0
2017-Jun-25 21:30N 69°39' E 018°58'0 0.0
2017-Jun-25 21:00N 69°39' E 018°58'0 0.0
2017-Jun-25 20:30N 69°39' E 018°58'0 0.0
2017-Jun-25 20:00N 69°39' E 018°58'0 0.0
2017-Jun-25 19:30N 69°39' E 018°58'0 0.0
2017-Jun-25 19:00N 69°39' E 018°58'0 0.0
2017-Jun-25 18:30N 69°39' E 018°58'0 0.0
2017-Jun-25 18:00N 69°39' E 018°58'0 0.8
2017-Jun-25 17:30N 69°40' E 018°59'713.9
2017-Jun-25 17:00N 69°46' E 019°07'815.2
2017-Jun-25 16:30N 69°49' E 019°28'815.0
2017-Jun-25 16:00N 69°52' E 019°48'815.1
2017-Jun-25 15:30N 69°56' E 020°05'714.7
2017-Jun-25 15:00N 69°60' E 020°24'814.7
2017-Jun-25 14:29N 70°03' E 020°45'1414.0
2017-Jun-25 13:30N 70°14' E 021°09'714.7
2017-Jun-25 13:00N 70°18' E 021°26'714.3
2017-Jun-25 12:30N 70°23' E 021°40'714.2
2017-Jun-25 12:00N 70°26' E 022°01'714.6
2017-Jun-25 11:30N 70°28' E 022°21'814.7
2017-Jun-25 11:00N 70°30' E 022°43'713.9
2017-Jun-25 10:30N 70°32' E 023°02'714.6
2017-Jun-25 10:00N 70°37' E 023°19'713.2
2017-Jun-25 09:30N 70°37' E 023°38'0 0.4
2017-Jun-25 09:00N 70°38' E 023°38'0 0.0
2017-Jun-25 08:30N 70°38' E 023°38'1 1.2
2017-Jun-25 08:00N 70°38' E 023°37'1 2.6
2017-Jun-25 07:30N 70°38' E 023°40'0 0.0
2017-Jun-25 07:00N 70°38' E 023°40'0 0.0
2017-Jun-25 06:30N 70°38' E 023°40'0 0.0
2017-Jun-25 06:00N 70°38' E 023°40'0 0.0
2017-Jun-25 05:29N 70°38' E 023°40'0 0.0
2017-Jun-25 05:00N 70°38' E 023°40'0 0.9
2017-Jun-25 04:30N 70°38' E 023°39'510.4
2017-Jun-25 03:59N 70°44' E 023°36'713.3
2017-Jun-25 03:30N 70°49' E 023°49'713.9
2017-Jun-25 03:00N 70°53' E 024°05'713.2
2017-Jun-25 02:30N 70°58' E 024°20'713.1
2017-Jun-25 02:00N 71°02' E 024°36'713.5
2017-Jun-25 01:30N 70°60' E 024°56'713.9
2017-Jun-25 01:00N 70°59' E 025°17'611.3
2017-Jun-25 00:30N 70°56' E 025°31'713.7
2017-Jun-25 00:00N 70°57' E 025°53'3 6.7
2017-Jun-24 23:30N 70°60' E 025°58'0 0.0
2017-Jun-24 23:00N 70°60' E 025°58'0 0.0
2017-Jun-24 22:30N 70°60' E 025°58'0 0.0
2017-Jun-24 22:00N 70°60' E 025°58'0 0.0
2017-Jun-24 21:30N 70°60' E 025°58'0 0.0
2017-Jun-24 21:00N 70°60' E 025°58'0 0.6
2017-Jun-24 20:30N 70°59' E 025°57'4 8.9
2017-Jun-24 20:00N 70°59' E 026°11'815.1
2017-Jun-24 19:30N 71°02' E 026°32'815.0
2017-Jun-24 19:00N 71°04' E 026°54'815.2
2017-Jun-24 18:30N 71°06' E 027°16'815.8
2017-Jun-24 18:00N 71°09' E 027°40'815.3
2017-Jun-24 17:30N 71°08' E 028°03'714.5
2017-Jun-24 17:00N 71°05' E 028°24'714.6
2017-Jun-24 16:30N 71°01' E 028°43'714.5
2017-Jun-24 16:00N 70°57' E 029°00'714.0
2017-Jun-24 15:30N 70°52' E 029°17'714.2
2017-Jun-24 15:00N 70°48' E 029°35'1110.8
2017-Jun-24 14:00N 70°38' E 029°43'0 0.0
2017-Jun-24 13:29N 70°38' E 029°43'0 0.0
2017-Jun-24 13:00N 70°38' E 029°43'0 0.0
2017-Jun-24 12:30N 70°38' E 029°43'0 0.0
2017-Jun-24 12:00N 70°38' E 029°43'0 0.0
2017-Jun-24 11:30N 70°38' E 029°43'0 0.0
2017-Jun-24 11:00N 70°38' E 029°43'0 0.0
2017-Jun-24 10:30N 70°38' E 029°43'0 0.0
2017-Jun-24 10:00N 70°38' E 029°43'0 0.0
2017-Jun-24 09:30N 70°38' E 029°43'0 0.0
2017-Jun-24 09:00N 70°38' E 029°43'0 0.0
2017-Jun-24 08:30N 70°38' E 029°43'0 0.0
2017-Jun-24 08:00N 70°38' E 029°43'0 0.0
2017-Jun-24 07:30N 70°38' E 029°43'0 0.0
2017-Jun-24 07:00N 70°38' E 029°43'0 0.0
2017-Jun-24 06:30N 70°38' E 029°43'0 0.0
2017-Jun-24 05:59N 70°38' E 029°43'0 0.0
2017-Jun-24 05:30N 70°38' E 029°43'0 0.0
2017-Jun-24 05:00N 70°38' E 029°43'0 0.0
2017-Jun-24 04:30N 70°38' E 029°43'0 0.0
2017-Jun-24 04:00N 70°38' E 029°43'0 0.0
2017-Jun-24 03:30N 70°38' E 029°43'0 0.0
2017-Jun-24 03:00N 70°38' E 029°43'0 0.2
2017-Jun-24 02:30N 70°38' E 029°44'0 0.0
2017-Jun-24 02:00N 70°38' E 029°44'0 0.0
2017-Jun-24 01:30N 70°38' E 029°44'0 0.3
2017-Jun-24 01:00N 70°38' E 029°44'713.5
2017-Jun-24 00:30N 70°43' E 029°57'612.0
2017-Jun-24 00:00N 70°41' E 030°15'714.3
2017-Jun-23 23:30N 70°36' E 030°31'714.3
2017-Jun-23 23:00N 70°31' E 030°47'714.6
2017-Jun-23 22:30N 70°26' E 031°02'4 8.2
2017-Jun-23 22:00N 70°22' E 031°02'0 0.0
2017-Jun-23 21:29N 70°22' E 031°02'3 6.3
2017-Jun-23 21:00N 70°19' E 031°06'714.0
2017-Jun-23 20:29N 70°13' E 030°56'714.3
2017-Jun-23 20:00N 70°07' E 030°42'714.3
2017-Jun-23 19:30N 70°02' E 030°29'714.2
2017-Jun-23 19:00N 69°56' E 030°17'714.3
2017-Jun-23 18:30N 69°50' E 030°07'612.6
2017-Jun-23 18:00N 69°44' E 030°04'0 0.0
2017-Jun-23 17:30N 69°44' E 030°04'0 0.0
2017-Jun-23 17:00N 69°44' E 030°04'0 0.0
2017-Jun-23 16:30N 69°44' E 030°05'0 0.0
2017-Jun-23 16:01N 69°44' E 030°04'0 0.0
2017-Jun-23 15:30N 69°44' E 030°04'0 0.0
2017-Jun-23 15:00N 69°44' E 030°04'0 0.0
2017-Jun-23 14:00N 69°44' E 030°04'0 0.0
2017-Jun-23 13:30N 69°44' E 030°04'0 0.0
2017-Jun-23 13:00N 69°44' E 030°04'0 0.0
2017-Jun-23 12:30N 69°44' E 030°04'0 0.0
2017-Jun-23 12:00N 69°44' E 030°04'0 0.0
2017-Jun-23 11:30N 69°44' E 030°04'3 6.9
2017-Jun-23 11:00N 69°47' E 030°05'714.3
2017-Jun-23 10:30N 69°54' E 030°11'714.6
2017-Jun-23 10:00N 69°60' E 030°24'714.7
2017-Jun-23 09:30N 70°06' E 030°36'714.5
2017-Jun-23 09:00N 70°11' E 030°50'714.4
2017-Jun-23 08:30N 70°17' E 031°05'713.2
2017-Jun-23 08:00N 70°23' E 031°03'612.9
2017-Jun-23 07:30N 70°29' E 030°54'713.0
2017-Jun-23 07:00N 70°33' E 030°39'713.1
2017-Jun-23 06:30N 70°38' E 030°25'613.1
2017-Jun-23 06:00N 70°42' E 030°10'713.4
2017-Jun-23 05:30N 70°44' E 029°51'714.2
2017-Jun-23 05:00N 70°48' E 029°34'714.4
2017-Jun-23 04:30N 70°53' E 029°16'714.4
2017-Jun-23 04:00N 70°57' E 028°58'714.4
2017-Jun-23 03:30N 71°01' E 028°40'714.9
2017-Jun-23 03:00N 71°06' E 028°22'714.6
2017-Jun-23 02:30N 71°08' E 028°00'815.1
2017-Jun-23 02:00N 71°08' E 027°37'715.1
2017-Jun-23 01:30N 71°06' E 027°15'714.7
2017-Jun-23 01:00N 71°03' E 026°54'714.5
2017-Jun-23 00:30N 71°01' E 026°33'714.2
2017-Jun-23 00:00N 70°59' E 026°12'5 9.2
2017-Jun-22 23:30N 70°59' E 025°58'0 0.1
2017-Jun-22 23:00N 70°59' E 025°58'611.1
2017-Jun-22 22:30N 70°56' E 025°43'714.6
2017-Jun-22 22:00N 70°59' E 025°22'714.5
2017-Jun-22 21:30N 70°59' E 025°00'612.2
2017-Jun-22 21:00N 70°60' E 024°41'1 2.4
2017-Jun-22 20:30N 71°01' E 024°41'612.4
2017-Jun-22 20:00N 70°59' E 024°23'713.7
2017-Jun-22 19:30N 70°54' E 024°08'713.7
2017-Jun-22 19:00N 70°50' E 023°52'713.8
2017-Jun-22 18:30N 70°45' E 023°37'5 9.9
2017-Jun-22 18:00N 70°40' E 023°39'0 0.2
2017-Jun-22 17:30N 70°40' E 023°40'713.2
2017-Jun-22 17:00N 70°37' E 023°21'713.9
2017-Jun-22 16:30N 70°33' E 023°04'713.4
2017-Jun-22 16:00N 70°30' E 022°47'714.1
2017-Jun-22 15:30N 70°28' E 022°27'713.9
2017-Jun-22 15:00N 70°26' E 022°06'713.8
2017-Jun-22 14:30N 70°24' E 021°47'1413.9
2017-Jun-22 13:30N 70°15' E 021°15'714.2
2017-Jun-22 13:00N 70°12' E 020°57'612.5
2017-Jun-22 12:29N 70°07' E 020°46'4 9.1
2017-Jun-22 12:00N 70°02' E 020°43'714.6
2017-Jun-22 11:30N 69°60' E 020°23'713.9
2017-Jun-22 11:00N 69°56' E 020°05'714.0
2017-Jun-22 10:30N 69°52' E 019°49'713.7
2017-Jun-22 09:59N 69°49' E 019°31'713.8
2017-Jun-22 09:30N 69°47' E 019°12'612.8
2017-Jun-22 09:00N 69°41' E 019°02'2 4.6
2017-Jun-22 08:30N 69°39' E 018°58'0 0.0
2017-Jun-22 08:00N 69°39' E 018°58'0 0.0
2017-Jun-22 07:30N 69°39' E 018°58'0 0.0
2017-Jun-22 07:00N 69°39' E 018°58'0 0.0
2017-Jun-22 06:30N 69°39' E 018°58'0 0.0
2017-Jun-22 06:00N 69°39' E 018°58'0 0.0
2017-Jun-22 05:29N 69°39' E 018°58'0 0.0
2017-Jun-22 05:00N 69°39' E 018°58'2 3.3
2017-Jun-22 04:30N 69°38' E 018°57'2 3.4
2017-Jun-22 04:00N 69°36' E 018°54'612.7
2017-Jun-22 03:30N 69°33' E 018°39'713.9
2017-Jun-22 03:00N 69°30' E 018°20'612.6
2017-Jun-22 02:30N 69°26' E 018°07'713.5
2017-Jun-22 02:00N 69°20' E 018°01'612.1
2017-Jun-22 01:30N 69°14' E 017°58'0 0.1
2017-Jun-22 01:00N 69°14' E 017°58'0 0.0
2017-Jun-22 00:30N 69°14' E 017°58'0 0.0
2017-Jun-22 00:00N 69°14' E 017°58'3 5.6
2017-Jun-21 23:30N 69°11' E 018°01'713.9
2017-Jun-21 23:00N 69°08' E 017°44'714.1
2017-Jun-21 22:30N 69°05' E 017°25'713.9
2017-Jun-21 22:00N 68°60' E 017°13'714.2
2017-Jun-21 21:29N 68°55' E 016°59'714.1
2017-Jun-21 21:00N 68°50' E 016°45'4 9.1
2017-Jun-21 20:30N 68°47' E 016°36'0 0.0
2017-Jun-21 20:00N 68°47' E 016°36'3 6.0
2017-Jun-21 19:30N 68°50' E 016°37'714.4
2017-Jun-21 19:00N 68°54' E 016°21'714.3
2017-Jun-21 18:30N 68°58' E 016°04'713.0
2017-Jun-21 18:00N 68°59' E 015°45'3 7.0
2017-Jun-21 17:30N 68°57' E 015°37'713.7
2017-Jun-21 17:00N 68°51' E 015°29'713.8
2017-Jun-21 16:30N 68°44' E 015°25'2 4.4
2017-Jun-21 16:00N 68°42' E 015°25'0 0.0
2017-Jun-21 15:30N 68°42' E 015°25'0 0.0
2017-Jun-21 15:00N 68°42' E 015°25'0 0.0
2017-Jun-21 14:30N 68°42' E 015°25'3612.6
2017-Jun-21 11:38N 68°16' E 014°16'914.1
2017-Jun-21 11:00N 68°09' E 014°05'6611.9
2017-Jun-21 05:27N 67°07' E 013°01'714.9
2017-Jun-21 05:00N 67°00' E 012°59'714.7
2017-Jun-21 04:30N 66°53' E 012°58'815.4
2017-Jun-21 04:00N 66°45' E 012°54'715.3
2017-Jun-21 03:30N 66°38' E 012°52'915.0
2017-Jun-21 02:54N 66°29' E 012°59'615.1
2017-Jun-21 02:30N 66°23' E 012°58'915.3
2017-Jun-21 01:56N 66°15' E 012°55'4 8.2
2017-Jun-21 01:30N 66°12' E 013°00'0 0.0
2017-Jun-21 01:00N 66°12' E 013°00'610.7
2017-Jun-21 00:29N 66°08' E 012°50'714.9
2017-Jun-21 00:00N 66°03' E 012°37'815.2
2017-Jun-20 23:30N 65°57' E 012°26'1414.5
2017-Jun-20 22:32N 65°43' E 012°17'114.7
2017-Jun-20 22:29N 65°43' E 012°17'1810.7
2017-Jun-20 20:46N 65°25' E 012°09'414.4
2017-Jun-20 20:29N 65°21' E 012°04'715.2
2017-Jun-20 20:00N 65°15' E 011°56'714.8
2017-Jun-20 19:30N 65°08' E 011°50'815.2
2017-Jun-20 19:00N 65°01' E 011°41'714.8
2017-Jun-20 18:30N 64°56' E 011°28'715.0
2017-Jun-20 18:01N 64°52' E 011°14'1 1.8
2017-Jun-20 17:31N 64°51' E 011°17'0 0.1
2017-Jun-20 17:00N 64°51' E 011°17'0 0.0
2017-Jun-20 16:30N 64°51' E 011°17'0 0.0
2017-Jun-20 16:01N 64°51' E 011°17'2 4.4
2017-Jun-20 15:31N 64°51' E 011°12'3014.8
2017-Jun-20 13:27N 64°30' E 010°20'8 9.7
2017-Jun-20 12:38N 64°22' E 010°23'3912.8
2017-Jun-20 09:36N 63°49' E 009°38'0 1.5
2017-Jun-20 09:30N 63°49' E 009°38'0 0.0
2017-Jun-20 08:59N 63°49' E 009°38'0 0.0
2017-Jun-20 08:30N 63°49' E 009°38'0 0.0
2017-Jun-20 08:00N 63°49' E 009°38'0 0.0
2017-Jun-20 07:29N 63°49' E 009°38'0 0.0
2017-Jun-20 07:00N 63°49' E 009°38'0 0.0
2017-Jun-20 06:29N 63°49' E 009°38'0 0.0
2017-Jun-20 05:57N 63°49' E 009°38'0 0.0
2017-Jun-20 05:30N 63°49' E 009°38'0 0.0
2017-Jun-20 05:00N 63°49' E 009°38'0 0.0
2017-Jun-20 04:29N 63°49' E 009°38'0 0.0
2017-Jun-20 03:52N 63°49' E 009°38'0 0.0
2017-Jun-20 03:29N 63°49' E 009°38'0 0.0
2017-Jun-20 03:00N 63°49' E 009°38'0 0.1
2017-Jun-20 02:30N 63°49' E 009°38'611.6
2017-Jun-20 02:00N 63°45' E 009°28'714.6
2017-Jun-20 01:30N 63°41' E 009°16'814.3
2017-Jun-20 00:59N 63°33' E 009°15'715.7
2017-Jun-20 00:30N 63°29' E 009°01'815.8
2017-Jun-20 00:00N 63°26' E 008°45'815.7
2017-Jun-19 23:30N 63°23' E 008°28'715.3
2017-Jun-19 23:00N 63°18' E 008°15'815.7
2017-Jun-19 22:30N 63°14' E 008°01'815.0
2017-Jun-19 22:00N 63°10' E 007°46'815.2
2017-Jun-19 21:30N 63°06' E 007°32'714.8
2017-Jun-19 21:00N 63°03' E 007°17'814.9
2017-Jun-19 20:30N 63°00' E 007°02'714.2
2017-Jun-19 20:00N 62°56' E 006°49'714.5
2017-Jun-19 19:30N 62°50' E 006°40'714.6
2017-Jun-19 19:00N 62°44' E 006°31'714.5
2017-Jun-19 18:30N 62°38' E 006°22'714.7
2017-Jun-19 18:00N 62°33' E 006°11'2 4.0
2017-Jun-19 17:30N 62°32' E 006°08'0 0.1
2017-Jun-19 17:01N 62°32' E 006°08'0 0.0
2017-Jun-19 16:31N 62°32' E 006°08'0 0.0
2017-Jun-19 16:00N 62°32' E 006°08'5 9.2
2017-Jun-19 15:30N 62°27' E 006°05'2 3.6
2017-Jun-19 15:00N 62°28' E 006°08'0 0.0
2017-Jun-19 14:00N 62°28' E 006°08'2 4.4
2017-Jun-19 13:29N 62°27' E 006°04'714.5
2017-Jun-19 13:00N 62°25' E 005°50'712.9
2017-Jun-19 12:30N 62°19' E 005°42'713.2
2017-Jun-19 12:00N 62°18' E 005°28'714.2
2017-Jun-19 11:30N 62°15' E 005°14'714.8
2017-Jun-19 11:00N 62°11' E 005°00'611.3
2017-Jun-19 10:30N 62°06' E 005°06'714.6
2017-Jun-19 10:00N 61°59' E 005°10'612.1
2017-Jun-19 09:30N 61°53' E 005°10'4 8.2
2017-Jun-19 09:00N 61°49' E 005°12'714.8
2017-Jun-19 08:30N 61°45' E 004°59'714.2
2017-Jun-19 08:00N 61°38' E 004°59'613.0
2017-Jun-19 07:30N 61°31' E 005°00'714.3
2017-Jun-19 07:01N 61°25' E 004°52'714.3
2017-Jun-19 06:30N 61°18' E 004°48'713.7
2017-Jun-19 06:00N 61°12' E 004°43'714.2
2017-Jun-19 05:30N 61°05' E 004°43'714.0
2017-Jun-19 05:00N 60°58' E 004°45'714.2
2017-Jun-19 04:30N 60°51' E 004°46'713.6
2017-Jun-19 04:00N 60°44' E 004°48'714.6
2017-Jun-19 03:30N 60°38' E 004°55'612.2
2017-Jun-19 03:01N 60°32' E 005°02'713.9
2017-Jun-19 02:30N 60°29' E 005°14'612.0
2017-Jun-19 02:00N 60°23' E 005°19'0 0.6
2017-Jun-19 01:30N 60°23' E 005°19'0 0.0
2017-Jun-19 01:00N 60°23' E 005°19'0 0.0
2017-Jun-19 00:30N 60°23' E 005°19'0 0.0
2017-Jun-19 00:00N 60°23' E 005°19'3 6.8
2017-Jun-18 23:30N 60°24' E 005°12'713.4
2017-Jun-18 23:00N 60°17' E 005°11'713.7
2017-Jun-18 22:30N 60°10' E 005°15'714.7
2017-Jun-18 22:00N 60°03' E 005°20'714.1
2017-Jun-18 21:30N 59°57' E 005°26'714.3
2017-Jun-18 21:00N 59°51' E 005°33'612.2
2017-Jun-18 20:30N 59°45' E 005°31'714.2
2017-Jun-18 20:00N 59°40' E 005°21'714.2
2017-Jun-18 19:30N 59°34' E 005°14'713.6
2017-Jun-18 19:00N 59°27' E 005°13'611.4
2017-Jun-18 18:30N 59°22' E 005°18'713.3
2017-Jun-18 18:01N 59°15' E 005°21'713.9
2017-Jun-18 17:30N 59°08' E 005°24'714.2
2017-Jun-18 17:01N 59°04' E 005°34'5 9.6
2017-Jun-18 16:30N 58°60' E 005°40'0 0.0
2017-Jun-18 16:00N 58°60' E 005°40'0 0.0
2017-Jun-18 15:30N 58°60' E 005°40'0 0.0
2017-Jun-18 15:00N 58°60' E 005°40'8 8.0
2017-Jun-18 14:00N 59°06' E 005°30'714.1
2017-Jun-18 13:30N 59°08' E 005°17'1 1.5
2017-Jun-18 13:00N 59°09' E 005°16'0 0.0
2017-Jun-18 12:30N 59°09' E 005°16'0 0.0
2017-Jun-18 12:00N 59°09' E 005°16'0 0.0
2017-Jun-18 11:30N 59°09' E 005°16'1 2.9
2017-Jun-18 11:01N 59°07' E 005°17'714.2
2017-Jun-18 10:30N 59°04' E 005°05'24114.7
2017-Jun-17 18:08N 57°15' W 001°42'214.2
2017-Jun-17 18:00N 57°14' W 001°45'714.4
2017-Jun-17 17:30N 57°10' W 001°57'5 9.8
2017-Jun-17 17:00N 57°09' W 002°05'0 0.0
2017-Jun-17 16:30N 57°09' W 002°05'0 0.0
2017-Jun-17 16:00N 57°09' W 002°05'0 0.0
2017-Jun-17 15:30N 57°09' W 002°05'0 0.0
2017-Jun-17 15:00N 57°09' W 002°05'0 0.0
2017-Jun-17 14:30N 57°09' W 002°05'0 0.5
2017-Jun-17 13:30N 57°09' W 002°05'3 6.6
2017-Jun-17 13:01N 57°07' W 001°59'815.6
2017-Jun-17 12:31N 57°00' W 001°55'14815.0
2017-Jun-17 02:39N 54°42' W 000°20'415.3
2017-Jun-17 02:25N 54°39' W 000°17'615.4
2017-Jun-17 02:01N 54°33' W 000°14'815.3
2017-Jun-17 01:31N 54°26' W 000°09'815.3
2017-Jun-17 01:01N 54°19' W 000°04'815.0
2017-Jun-17 00:31N 54°12' E 000°01'914.8
2017-Jun-16 23:53N 54°03' E 000°06'28 8.5
2017-Jun-16 20:36N 53°36' W 000°02'113.2
2017-Jun-16 20:30N 53°36' W 000°04'4 9.0
2017-Jun-16 20:00N 53°38' W 000°11'1 1.1
2017-Jun-16 19:30N 53°38' W 000°12'0 0.7
2017-Jun-16 19:00N 53°38' W 000°12'0 0.0
2017-Jun-16 18:30N 53°38' W 000°12'0 0.0
2017-Jun-16 18:00N 53°38' W 000°12'0 0.0
2017-Jun-16 17:30N 53°38' W 000°12'0 0.0
2017-Jun-16 17:00N 53°38' W 000°12'0 0.0
2017-Jun-16 16:30N 53°38' W 000°12'0 0.0
2017-Jun-16 16:00N 53°38' W 000°12'0 0.0
2017-Jun-16 15:30N 53°38' W 000°12'0 0.0
2017-Jun-16 15:00N 53°38' W 000°12'0 0.0
2017-Jun-16 14:29N 53°38' W 000°12'0 0.4
2017-Jun-16 13:30N 53°38' W 000°11'2 4.0
2017-Jun-16 13:00N 53°38' W 000°08'1 2.6
2017-Jun-16 12:30N 53°37' W 000°06'1 1.6
2017-Jun-16 12:00N 53°37' W 000°05'2 3.0
2017-Jun-16 11:28N 53°36' W 000°02'2 1.9
2017-Jun-16 10:36N 53°35' W 000°04'0 1.7
2017-Jun-16 10:28N 53°35' W 000°04'0 0.0
2017-Jun-16 09:38N 53°35' W 000°04'0 0.0
2017-Jun-16 09:20N 53°35' W 000°04'0 0.0
2017-Jun-16 08:29N 53°35' W 000°04'  
Track history (hours):
 
Tides and Currents Weather Stations Pressure Air Temp Water Temp Dewpoint Dewpoint Depression Visibility Wind Speed Wind Dir Waves Ship Positions

Svartfoss

Last reported at 2017-Jun-26 08:23 UTC. Time now 2017-Jun-26 12:20 UTC.
Position N 69°39' E 018°58'.

Length 80 m; draft 5.6 m.

Type: Cargo ship. MMSI: 304882000.

Date/timePositionNaut miles runAvg speedWind from/ knotsBaromVisibWave heightAir tempDewpointWater temp
2017-Jun-26 08:23N 69°39' E 018°58'0 0.0
2017-Jun-26 08:00N 69°39' E 018°58'0 0.0
2017-Jun-26 07:30N 69°39' E 018°58'0 0.0
2017-Jun-26 07:00N 69°39' E 018°58'0 0.0
2017-Jun-26 06:30N 69°39' E 018°58'0 0.0
2017-Jun-26 06:00N 69°39' E 018°58'0 0.0
2017-Jun-26 05:29N 69°39' E 018°58'0 0.0
2017-Jun-26 05:00N 69°39' E 018°58'0 0.0
2017-Jun-26 04:30N 69°39' E 018°58'0 0.0
2017-Jun-26 04:00N 69°39' E 018°58'0 0.0
2017-Jun-26 03:30N 69°39' E 018°58'0 0.0
2017-Jun-26 03:00N 69°39' E 018°58'0 0.0
2017-Jun-26 02:30N 69°39' E 018°58'0 0.0
2017-Jun-26 02:00N 69°39' E 018°58'0 0.0
2017-Jun-26 01:30N 69°39' E 018°58'0 0.0
2017-Jun-26 01:00N 69°39' E 018°58'0 0.0
2017-Jun-26 00:30N 69°39' E 018°58'0 0.0
2017-Jun-26 00:00N 69°39' E 018°58'0 0.0
2017-Jun-25 23:30N 69°39' E 018°58'0 0.0
2017-Jun-25 23:00N 69°39' E 018°58'0 0.0
2017-Jun-25 22:30N 69°39' E 018°58'0 0.0
2017-Jun-25 22:00N 69°39' E 018°58'0 0.0
2017-Jun-25 21:30N 69°39' E 018°58'0 0.0
2017-Jun-25 21:00N 69°39' E 018°58'0 0.0
2017-Jun-25 20:30N 69°39' E 018°58'0 0.0
2017-Jun-25 20:00N 69°39' E 018°58'0 0.0
2017-Jun-25 19:30N 69°39' E 018°58'0 0.0
2017-Jun-25 19:00N 69°39' E 018°58'0 0.0
2017-Jun-25 18:30N 69°39' E 018°58'0 0.0
2017-Jun-25 18:00N 69°39' E 018°58'0 0.8
2017-Jun-25 17:30N 69°40' E 018°59'713.9
2017-Jun-25 17:00N 69°46' E 019°07'815.2
2017-Jun-25 16:30N 69°49' E 019°28'815.0
2017-Jun-25 16:00N 69°52' E 019°48'815.1
2017-Jun-25 15:30N 69°56' E 020°05'714.7
2017-Jun-25 15:00N 69°60' E 020°24'814.7
2017-Jun-25 14:29N 70°03' E 020°45'1414.0
2017-Jun-25 13:30N 70°14' E 021°09'714.7
2017-Jun-25 13:00N 70°18' E 021°26'714.3
2017-Jun-25 12:30N 70°23' E 021°40'714.2
2017-Jun-25 12:00N 70°26' E 022°01'714.6
2017-Jun-25 11:30N 70°28' E 022°21'814.7
2017-Jun-25 11:00N 70°30' E 022°43'713.9
2017-Jun-25 10:30N 70°32' E 023°02'714.6
2017-Jun-25 10:00N 70°37' E 023°19'713.2
2017-Jun-25 09:30N 70°37' E 023°38'0 0.4
2017-Jun-25 09:00N 70°38' E 023°38'0 0.0
2017-Jun-25 08:30N 70°38' E 023°38'1 1.2
2017-Jun-25 08:00N 70°38' E 023°37'1 2.6
2017-Jun-25 07:30N 70°38' E 023°40'0 0.0
2017-Jun-25 07:00N 70°38' E 023°40'0 0.0
2017-Jun-25 06:30N 70°38' E 023°40'0 0.0
2017-Jun-25 06:00N 70°38' E 023°40'0 0.0
2017-Jun-25 05:29N 70°38' E 023°40'0 0.0
2017-Jun-25 05:00N 70°38' E 023°40'0 0.9
2017-Jun-25 04:30N 70°38' E 023°39'510.4
2017-Jun-25 03:59N 70°44' E 023°36'713.3
2017-Jun-25 03:30N 70°49' E 023°49'713.9
2017-Jun-25 03:00N 70°53' E 024°05'713.2
2017-Jun-25 02:30N 70°58' E 024°20'713.1
2017-Jun-25 02:00N 71°02' E 024°36'713.5
2017-Jun-25 01:30N 70°60' E 024°56'713.9
2017-Jun-25 01:00N 70°59' E 025°17'611.3
2017-Jun-25 00:30N 70°56' E 025°31'713.7
2017-Jun-25 00:00N 70°57' E 025°53'3 6.7
2017-Jun-24 23:30N 70°60' E 025°58'0 0.0
2017-Jun-24 23:00N 70°60' E 025°58'0 0.0
2017-Jun-24 22:30N 70°60' E 025°58'0 0.0
2017-Jun-24 22:00N 70°60' E 025°58'0 0.0
2017-Jun-24 21:30N 70°60' E 025°58'0 0.0
2017-Jun-24 21:00N 70°60' E 025°58'0 0.6
2017-Jun-24 20:30N 70°59' E 025°57'4 8.9
2017-Jun-24 20:00N 70°59' E 026°11'815.1
2017-Jun-24 19:30N 71°02' E 026°32'815.0
2017-Jun-24 19:00N 71°04' E 026°54'815.2
2017-Jun-24 18:30N 71°06' E 027°16'815.8
2017-Jun-24 18:00N 71°09' E 027°40'815.3
2017-Jun-24 17:30N 71°08' E 028°03'714.5
2017-Jun-24 17:00N 71°05' E 028°24'714.6
2017-Jun-24 16:30N 71°01' E 028°43'714.5
2017-Jun-24 16:00N 70°57' E 029°00'714.0
2017-Jun-24 15:30N 70°52' E 029°17'714.2
2017-Jun-24 15:00N 70°48' E 029°35'1110.8
2017-Jun-24 14:00N 70°38' E 029°43'0 0.0
2017-Jun-24 13:29N 70°38' E 029°43'0 0.0
2017-Jun-24 13:00N 70°38' E 029°43'0 0.0
2017-Jun-24 12:30N 70°38' E 029°43'0 0.0
2017-Jun-24 12:00N 70°38' E 029°43'0 0.0
2017-Jun-24 11:30N 70°38' E 029°43'0 0.0
2017-Jun-24 11:00N 70°38' E 029°43'0 0.0
2017-Jun-24 10:30N 70°38' E 029°43'0 0.0
2017-Jun-24 10:00N 70°38' E 029°43'0 0.0
2017-Jun-24 09:30N 70°38' E 029°43'0 0.0
2017-Jun-24 09:00N 70°38' E 029°43'0 0.0
2017-Jun-24 08:30N 70°38' E 029°43'0 0.0
2017-Jun-24 08:00N 70°38' E 029°43'0 0.0
2017-Jun-24 07:30N 70°38' E 029°43'0 0.0
2017-Jun-24 07:00N 70°38' E 029°43'0 0.0
2017-Jun-24 06:30N 70°38' E 029°43'0 0.0
2017-Jun-24 05:59N 70°38' E 029°43'0 0.0
2017-Jun-24 05:30N 70°38' E 029°43'0 0.0
2017-Jun-24 05:00N 70°38' E 029°43'0 0.0
2017-Jun-24 04:30N 70°38' E 029°43'0 0.0
2017-Jun-24 04:00N 70°38' E 029°43'0 0.0
2017-Jun-24 03:30N 70°38' E 029°43'0 0.0
2017-Jun-24 03:00N 70°38' E 029°43'0 0.2
2017-Jun-24 02:30N 70°38' E 029°44'0 0.0
2017-Jun-24 02:00N 70°38' E 029°44'0 0.0
2017-Jun-24 01:30N 70°38' E 029°44'0 0.3
2017-Jun-24 01:00N 70°38' E 029°44'713.5
2017-Jun-24 00:30N 70°43' E 029°57'612.0
2017-Jun-24 00:00N 70°41' E 030°15'714.3
2017-Jun-23 23:30N 70°36' E 030°31'714.3
2017-Jun-23 23:00N 70°31' E 030°47'714.6
2017-Jun-23 22:30N 70°26' E 031°02'4 8.2
2017-Jun-23 22:00N 70°22' E 031°02'0 0.0
2017-Jun-23 21:29N 70°22' E 031°02'3 6.3
2017-Jun-23 21:00N 70°19' E 031°06'714.0
2017-Jun-23 20:29N 70°13' E 030°56'714.3
2017-Jun-23 20:00N 70°07' E 030°42'714.3
2017-Jun-23 19:30N 70°02' E 030°29'714.2
2017-Jun-23 19:00N 69°56' E 030°17'714.3
2017-Jun-23 18:30N 69°50' E 030°07'612.6
2017-Jun-23 18:00N 69°44' E 030°04'0 0.0
2017-Jun-23 17:30N 69°44' E 030°04'0 0.0
2017-Jun-23 17:00N 69°44' E 030°04'0 0.0
2017-Jun-23 16:30N 69°44' E 030°05'0 0.0
2017-Jun-23 16:01N 69°44' E 030°04'0 0.0
2017-Jun-23 15:30N 69°44' E 030°04'0 0.0
2017-Jun-23 15:00N 69°44' E 030°04'0 0.0
2017-Jun-23 14:00N 69°44' E 030°04'0 0.0
2017-Jun-23 13:30N 69°44' E 030°04'0 0.0
2017-Jun-23 13:00N 69°44' E 030°04'0 0.0
2017-Jun-23 12:30N 69°44' E 030°04'0 0.0
2017-Jun-23 12:00N 69°44' E 030°04'0 0.0
2017-Jun-23 11:30N 69°44' E 030°04'3 6.9
2017-Jun-23 11:00N 69°47' E 030°05'714.3
2017-Jun-23 10:30N 69°54' E 030°11'714.6
2017-Jun-23 10:00N 69°60' E 030°24'714.7
2017-Jun-23 09:30N 70°06' E 030°36'714.5
2017-Jun-23 09:00N 70°11' E 030°50'714.4
2017-Jun-23 08:30N 70°17' E 031°05'713.2
2017-Jun-23 08:00N 70°23' E 031°03'612.9
2017-Jun-23 07:30N 70°29' E 030°54'713.0
2017-Jun-23 07:00N 70°33' E 030°39'713.1
2017-Jun-23 06:30N 70°38' E 030°25'613.1
2017-Jun-23 06:00N 70°42' E 030°10'713.4
2017-Jun-23 05:30N 70°44' E 029°51'714.2
2017-Jun-23 05:00N 70°48' E 029°34'714.4
2017-Jun-23 04:30N 70°53' E 029°16'714.4
2017-Jun-23 04:00N 70°57' E 028°58'714.4
2017-Jun-23 03:30N 71°01' E 028°40'714.9
2017-Jun-23 03:00N 71°06' E 028°22'714.6
2017-Jun-23 02:30N 71°08' E 028°00'815.1
2017-Jun-23 02:00N 71°08' E 027°37'715.1
2017-Jun-23 01:30N 71°06' E 027°15'714.7
2017-Jun-23 01:00N 71°03' E 026°54'714.5
2017-Jun-23 00:30N 71°01' E 026°33'714.2
2017-Jun-23 00:00N 70°59' E 026°12'5 9.2
2017-Jun-22 23:30N 70°59' E 025°58'0 0.1
2017-Jun-22 23:00N 70°59' E 025°58'611.1
2017-Jun-22 22:30N 70°56' E 025°43'714.6
2017-Jun-22 22:00N 70°59' E 025°22'714.5
2017-Jun-22 21:30N 70°59' E 025°00'612.2
2017-Jun-22 21:00N 70°60' E 024°41'1 2.4
2017-Jun-22 20:30N 71°01' E 024°41'612.4
2017-Jun-22 20:00N 70°59' E 024°23'713.7
2017-Jun-22 19:30N 70°54' E 024°08'713.7
2017-Jun-22 19:00N 70°50' E 023°52'713.8
2017-Jun-22 18:30N 70°45' E 023°37'5 9.9
2017-Jun-22 18:00N 70°40' E 023°39'0 0.2
2017-Jun-22 17:30N 70°40' E 023°40'713.2
2017-Jun-22 17:00N 70°37' E 023°21'713.9
2017-Jun-22 16:30N 70°33' E 023°04'713.4
2017-Jun-22 16:00N 70°30' E 022°47'714.1
2017-Jun-22 15:30N 70°28' E 022°27'713.9
2017-Jun-22 15:00N 70°26' E 022°06'713.8
2017-Jun-22 14:30N 70°24' E 021°47'1413.9
2017-Jun-22 13:30N 70°15' E 021°15'714.2
2017-Jun-22 13:00N 70°12' E 020°57'612.5
2017-Jun-22 12:29N 70°07' E 020°46'4 9.1
2017-Jun-22 12:00N 70°02' E 020°43'714.6
2017-Jun-22 11:30N 69°60' E 020°23'713.9
2017-Jun-22 11:00N 69°56' E 020°05'714.0
2017-Jun-22 10:30N 69°52' E 019°49'713.7
2017-Jun-22 09:59N 69°49' E 019°31'713.8
2017-Jun-22 09:30N 69°47' E 019°12'612.8
2017-Jun-22 09:00N 69°41' E 019°02'2 4.6
2017-Jun-22 08:30N 69°39' E 018°58'0 0.0
2017-Jun-22 08:00N 69°39' E 018°58'0 0.0
2017-Jun-22 07:30N 69°39' E 018°58'0 0.0
2017-Jun-22 07:00N 69°39' E 018°58'0 0.0
2017-Jun-22 06:30N 69°39' E 018°58'0 0.0
2017-Jun-22 06:00N 69°39' E 018°58'0 0.0
2017-Jun-22 05:29N 69°39' E 018°58'0 0.0
2017-Jun-22 05:00N 69°39' E 018°58'2 3.3
2017-Jun-22 04:30N 69°38' E 018°57'2 3.4
2017-Jun-22 04:00N 69°36' E 018°54'612.7
2017-Jun-22 03:30N 69°33' E 018°39'713.9
2017-Jun-22 03:00N 69°30' E 018°20'612.6
2017-Jun-22 02:30N 69°26' E 018°07'713.5
2017-Jun-22 02:00N 69°20' E 018°01'612.1
2017-Jun-22 01:30N 69°14' E 017°58'0 0.1
2017-Jun-22 01:00N 69°14' E 017°58'0 0.0
2017-Jun-22 00:30N 69°14' E 017°58'0 0.0
2017-Jun-22 00:00N 69°14' E 017°58'3 5.6
2017-Jun-21 23:30N 69°11' E 018°01'713.9
2017-Jun-21 23:00N 69°08' E 017°44'714.1
2017-Jun-21 22:30N 69°05' E 017°25'713.9
2017-Jun-21 22:00N 68°60' E 017°13'714.2
2017-Jun-21 21:29N 68°55' E 016°59'714.1
2017-Jun-21 21:00N 68°50' E 016°45'4 9.1
2017-Jun-21 20:30N 68°47' E 016°36'0 0.0
2017-Jun-21 20:00N 68°47' E 016°36'3 6.0
2017-Jun-21 19:30N 68°50' E 016°37'714.4
2017-Jun-21 19:00N 68°54' E 016°21'714.3
2017-Jun-21 18:30N 68°58' E 016°04'713.0
2017-Jun-21 18:00N 68°59' E 015°45'3 7.0
2017-Jun-21 17:30N 68°57' E 015°37'713.7
2017-Jun-21 17:00N 68°51' E 015°29'713.8
2017-Jun-21 16:30N 68°44' E 015°25'2 4.4
2017-Jun-21 16:00N 68°42' E 015°25'0 0.0
2017-Jun-21 15:30N 68°42' E 015°25'0 0.0
2017-Jun-21 15:00N 68°42' E 015°25'0 0.0
2017-Jun-21 14:30N 68°42' E 015°25'3612.6
2017-Jun-21 11:38N 68°16' E 014°16'914.1
2017-Jun-21 11:00N 68°09' E 014°05'6611.9
2017-Jun-21 05:27N 67°07' E 013°01'714.9
2017-Jun-21 05:00N 67°00' E 012°59'714.7
2017-Jun-21 04:30N 66°53' E 012°58'815.4
2017-Jun-21 04:00N 66°45' E 012°54'715.3
2017-Jun-21 03:30N 66°38' E 012°52'915.0
2017-Jun-21 02:54N 66°29' E 012°59'615.1
2017-Jun-21 02:30N 66°23' E 012°58'915.3
2017-Jun-21 01:56N 66°15' E 012°55'4 8.2
2017-Jun-21 01:30N 66°12' E 013°00'0 0.0
2017-Jun-21 01:00N 66°12' E 013°00'610.7
2017-Jun-21 00:29N 66°08' E 012°50'714.9
2017-Jun-21 00:00N 66°03' E 012°37'815.2
2017-Jun-20 23:30N 65°57' E 012°26'1414.5
2017-Jun-20 22:32N 65°43' E 012°17'114.7
2017-Jun-20 22:29N 65°43' E 012°17'1810.7
2017-Jun-20 20:46N 65°25' E 012°09'414.4
2017-Jun-20 20:29N 65°21' E 012°04'715.2
2017-Jun-20 20:00N 65°15' E 011°56'714.8
2017-Jun-20 19:30N 65°08' E 011°50'815.2
2017-Jun-20 19:00N 65°01' E 011°41'714.8
2017-Jun-20 18:30N 64°56' E 011°28'715.0
2017-Jun-20 18:01N 64°52' E 011°14'1 1.8
2017-Jun-20 17:31N 64°51' E 011°17'0 0.1
2017-Jun-20 17:00N 64°51' E 011°17'0 0.0
2017-Jun-20 16:30N 64°51' E 011°17'0 0.0
2017-Jun-20 16:01N 64°51' E 011°17'2 4.4
2017-Jun-20 15:31N 64°51' E 011°12'3014.8
2017-Jun-20 13:27N 64°30' E 010°20'8 9.7
2017-Jun-20 12:38N 64°22' E 010°23'3912.8
2017-Jun-20 09:36N 63°49' E 009°38'0 1.5
2017-Jun-20 09:30N 63°49' E 009°38'0 0.0
2017-Jun-20 08:59N 63°49' E 009°38'0 0.0
2017-Jun-20 08:30N 63°49' E 009°38'0 0.0
2017-Jun-20 08:00N 63°49' E 009°38'0 0.0
2017-Jun-20 07:29N 63°49' E 009°38'0 0.0
2017-Jun-20 07:00N 63°49' E 009°38'0 0.0
2017-Jun-20 06:29N 63°49' E 009°38'0 0.0
2017-Jun-20 05:57N 63°49' E 009°38'0 0.0
2017-Jun-20 05:30N 63°49' E 009°38'0 0.0
2017-Jun-20 05:00N 63°49' E 009°38'0 0.0
2017-Jun-20 04:29N 63°49' E 009°38'0 0.0
2017-Jun-20 03:52N 63°49' E 009°38'0 0.0
2017-Jun-20 03:29N 63°49' E 009°38'0 0.0
2017-Jun-20 03:00N 63°49' E 009°38'0 0.1
2017-Jun-20 02:30N 63°49' E 009°38'611.6
2017-Jun-20 02:00N 63°45' E 009°28'714.6
2017-Jun-20 01:30N 63°41' E 009°16'814.3
2017-Jun-20 00:59N 63°33' E 009°15'715.7
2017-Jun-20 00:30N 63°29' E 009°01'815.8
2017-Jun-20 00:00N 63°26' E 008°45'815.7
2017-Jun-19 23:30N 63°23' E 008°28'715.3
2017-Jun-19 23:00N 63°18' E 008°15'815.7
2017-Jun-19 22:30N 63°14' E 008°01'815.0
2017-Jun-19 22:00N 63°10' E 007°46'815.2
2017-Jun-19 21:30N 63°06' E 007°32'714.8
2017-Jun-19 21:00N 63°03' E 007°17'814.9
2017-Jun-19 20:30N 63°00' E 007°02'714.2
2017-Jun-19 20:00N 62°56' E 006°49'714.5
2017-Jun-19 19:30N 62°50' E 006°40'714.6
2017-Jun-19 19:00N 62°44' E 006°31'714.5
2017-Jun-19 18:30N 62°38' E 006°22'714.7
2017-Jun-19 18:00N 62°33' E 006°11'2 4.0
2017-Jun-19 17:30N 62°32' E 006°08'0 0.1
2017-Jun-19 17:01N 62°32' E 006°08'0 0.0
2017-Jun-19 16:31N 62°32' E 006°08'0 0.0
2017-Jun-19 16:00N 62°32' E 006°08'5 9.2
2017-Jun-19 15:30N 62°27' E 006°05'2 3.6
2017-Jun-19 15:00N 62°28' E 006°08'0 0.0
2017-Jun-19 14:00N 62°28' E 006°08'2 4.4
2017-Jun-19 13:29N 62°27' E 006°04'714.5
2017-Jun-19 13:00N 62°25' E 005°50'712.9
2017-Jun-19 12:30N 62°19' E 005°42'713.2
2017-Jun-19 12:00N 62°18' E 005°28'714.2
2017-Jun-19 11:30N 62°15' E 005°14'714.8
2017-Jun-19 11:00N 62°11' E 005°00'611.3
2017-Jun-19 10:30N 62°06' E 005°06'714.6
2017-Jun-19 10:00N 61°59' E 005°10'612.1
2017-Jun-19 09:30N 61°53' E 005°10'4 8.2
2017-Jun-19 09:00N 61°49' E 005°12'714.8
2017-Jun-19 08:30N 61°45' E 004°59'714.2
2017-Jun-19 08:00N 61°38' E 004°59'613.0
2017-Jun-19 07:30N 61°31' E 005°00'714.3
2017-Jun-19 07:01N 61°25' E 004°52'714.3
2017-Jun-19 06:30N 61°18' E 004°48'713.7
2017-Jun-19 06:00N 61°12' E 004°43'714.2
2017-Jun-19 05:30N 61°05' E 004°43'714.0
2017-Jun-19 05:00N 60°58' E 004°45'714.2
2017-Jun-19 04:30N 60°51' E 004°46'713.6
2017-Jun-19 04:00N 60°44' E 004°48'714.6
2017-Jun-19 03:30N 60°38' E 004°55'612.2
2017-Jun-19 03:01N 60°32' E 005°02'713.9
2017-Jun-19 02:30N 60°29' E 005°14'612.0
2017-Jun-19 02:00N 60°23' E 005°19'0 0.6
2017-Jun-19 01:30N 60°23' E 005°19'0 0.0
2017-Jun-19 01:00N 60°23' E 005°19'0 0.0
2017-Jun-19 00:30N 60°23' E 005°19'0 0.0
2017-Jun-19 00:00N 60°23' E 005°19'3 6.8
2017-Jun-18 23:30N 60°24' E 005°12'713.4
2017-Jun-18 23:00N 60°17' E 005°11'713.7
2017-Jun-18 22:30N 60°10' E 005°15'714.7
2017-Jun-18 22:00N 60°03' E 005°20'714.1
2017-Jun-18 21:30N 59°57' E 005°26'714.3
2017-Jun-18 21:00N 59°51' E 005°33'612.2
2017-Jun-18 20:30N 59°45' E 005°31'714.2
2017-Jun-18 20:00N 59°40' E 005°21'714.2
2017-Jun-18 19:30N 59°34' E 005°14'713.6
2017-Jun-18 19:00N 59°27' E 005°13'611.4
2017-Jun-18 18:30N 59°22' E 005°18'713.3
2017-Jun-18 18:01N 59°15' E 005°21'713.9
2017-Jun-18 17:30N 59°08' E 005°24'714.2
2017-Jun-18 17:01N 59°04' E 005°34'5 9.6
2017-Jun-18 16:30N 58°60' E 005°40'0 0.0
2017-Jun-18 16:00N 58°60' E 005°40'0 0.0
2017-Jun-18 15:30N 58°60' E 005°40'0 0.0
2017-Jun-18 15:00N 58°60' E 005°40'8 8.0
2017-Jun-18 14:00N 59°06' E 005°30'714.1
2017-Jun-18 13:30N 59°08' E 005°17'1 1.5
2017-Jun-18 13:00N 59°09' E 005°16'0 0.0
2017-Jun-18 12:30N 59°09' E 005°16'0 0.0
2017-Jun-18 12:00N 59°09' E 005°16'0 0.0
2017-Jun-18 11:30N 59°09' E 005°16'1 2.9
2017-Jun-18 11:01N 59°07' E 005°17'714.2
2017-Jun-18 10:30N 59°04' E 005°05'24114.7
2017-Jun-17 18:08N 57°15' W 001°42'214.2
2017-Jun-17 18:00N 57°14' W 001°45'714.4
2017-Jun-17 17:30N 57°10' W 001°57'5 9.8
2017-Jun-17 17:00N 57°09' W 002°05'0 0.0
2017-Jun-17 16:30N 57°09' W 002°05'0 0.0
2017-Jun-17 16:00N 57°09' W 002°05'0 0.0
2017-Jun-17 15:30N 57°09' W 002°05'0 0.0
2017-Jun-17 15:00N 57°09' W 002°05'0 0.0
2017-Jun-17 14:30N 57°09' W 002°05'0 0.5
2017-Jun-17 13:30N 57°09' W 002°05'3 6.6
2017-Jun-17 13:01N 57°07' W 001°59'815.6
2017-Jun-17 12:31N 57°00' W 001°55'14815.0
2017-Jun-17 02:39N 54°42' W 000°20'415.3
2017-Jun-17 02:25N 54°39' W 000°17'615.4
2017-Jun-17 02:01N 54°33' W 000°14'815.3
2017-Jun-17 01:31N 54°26' W 000°09'815.3
2017-Jun-17 01:01N 54°19' W 000°04'815.0
2017-Jun-17 00:31N 54°12' E 000°01'914.8
2017-Jun-16 23:53N 54°03' E 000°06'28 8.5
2017-Jun-16 20:36N 53°36' W 000°02'113.2
2017-Jun-16 20:30N 53°36' W 000°04'4 9.0
2017-Jun-16 20:00N 53°38' W 000°11'1 1.1
2017-Jun-16 19:30N 53°38' W 000°12'0 0.7
2017-Jun-16 19:00N 53°38' W 000°12'0 0.0
2017-Jun-16 18:30N 53°38' W 000°12'0 0.0
2017-Jun-16 18:00N 53°38' W 000°12'0 0.0
2017-Jun-16 17:30N 53°38' W 000°12'0 0.0
2017-Jun-16 17:00N 53°38' W 000°12'0 0.0
2017-Jun-16 16:30N 53°38' W 000°12'0 0.0
2017-Jun-16 16:00N 53°38' W 000°12'0 0.0
2017-Jun-16 15:30N 53°38' W 000°12'0 0.0
2017-Jun-16 15:00N 53°38' W 000°12'0 0.0
2017-Jun-16 14:29N 53°38' W 000°12'0 0.4
2017-Jun-16 13:30N 53°38' W 000°11'2 4.0
2017-Jun-16 13:00N 53°38' W 000°08'1 2.6
2017-Jun-16 12:30N 53°37' W 000°06'1 1.6
2017-Jun-16 12:00N 53°37' W 000°05'2 3.0
2017-Jun-16 11:28N 53°36' W 000°02'2 1.9
2017-Jun-16 10:36N 53°35' W 000°04'0 1.7
2017-Jun-16 10:28N 53°35' W 000°04'0 0.0
2017-Jun-16 09:38N 53°35' W 000°04'0 0.0
2017-Jun-16 09:20N 53°35' W 000°04'0 0.0
2017-Jun-16 08:29N 53°35' W 000°04'  

Dump ship's entire track history